sensor_id;sensor_type;location;lat;lon;timestamp;pressure;altitude;pressure_sealevel;temperature;humidity
27888;BME280;15237;49.608;7.170;2023-01-08T00:00:02;969.37;;;19.81;38.76
27888;BME280;15237;49.608;7.170;2023-01-08T00:01:03;969.37;;;19.81;38.76
27888;BME280;15237;49.608;7.170;2023-01-08T00:01:59;969.38;;;19.82;38.70
27888;BME280;15237;49.608;7.170;2023-01-08T00:03:00;969.36;;;19.77;38.78
27888;BME280;15237;49.608;7.170;2023-01-08T00:03:56;969.35;;;19.79;38.78
27888;BME280;15237;49.608;7.170;2023-01-08T00:04:52;969.31;;;19.78;38.77
27888;BME280;15237;49.608;7.170;2023-01-08T00:05:48;969.24;;;19.76;38.87
27888;BME280;15237;49.608;7.170;2023-01-08T00:06:44;969.24;;;19.78;38.77
27888;BME280;15237;49.608;7.170;2023-01-08T00:07:40;969.28;;;19.78;38.80
27888;BME280;15237;49.608;7.170;2023-01-08T00:08:36;969.24;;;19.78;38.81
27888;BME280;15237;49.608;7.170;2023-01-08T00:09:32;969.25;;;19.79;38.79
27888;BME280;15237;49.608;7.170;2023-01-08T00:10:28;969.21;;;19.78;38.78
27888;BME280;15237;49.608;7.170;2023-01-08T00:11:24;969.17;;;19.76;38.84
27888;BME280;15237;49.608;7.170;2023-01-08T00:12:24;969.16;;;19.74;38.85
27888;BME280;15237;49.608;7.170;2023-01-08T00:13:20;969.17;;;19.78;38.79
27888;BME280;15237;49.608;7.170;2023-01-08T00:14:16;969.16;;;19.80;38.77
27888;BME280;15237;49.608;7.170;2023-01-08T00:15:12;969.16;;;19.82;38.70
27888;BME280;15237;49.608;7.170;2023-01-08T00:16:08;969.18;;;19.83;38.69
27888;BME280;15237;49.608;7.170;2023-01-08T00:17:05;969.13;;;19.79;38.73
27888;BME280;15237;49.608;7.170;2023-01-08T00:18:00;969.14;;;19.76;38.78
27888;BME280;15237;49.608;7.170;2023-01-08T00:18:59;969.05;;;19.78;38.79
27888;BME280;15237;49.608;7.170;2023-01-08T00:19:55;969.08;;;19.75;38.82
27888;BME280;15237;49.608;7.170;2023-01-08T00:20:53;969.09;;;19.74;38.85
27888;BME280;15237;49.608;7.170;2023-01-08T00:21:55;969.07;;;19.74;38.84
27888;BME280;15237;49.608;7.170;2023-01-08T00:22:51;969.13;;;19.79;38.75
27888;BME280;15237;49.608;7.170;2023-01-08T00:23:48;969.09;;;19.82;38.67
27888;BME280;15237;49.608;7.170;2023-01-08T00:24:44;969.12;;;19.78;38.77
27888;BME280;15237;49.608;7.170;2023-01-08T00:25:40;969.14;;;19.80;38.72
27888;BME280;15237;49.608;7.170;2023-01-08T00:26:36;969.10;;;19.75;38.78
27888;BME280;15237;49.608;7.170;2023-01-08T00:27:32;969.16;;;19.78;38.75
27888;BME280;15237;49.608;7.170;2023-01-08T00:28:28;969.14;;;19.78;38.76
27888;BME280;15237;49.608;7.170;2023-01-08T00:29:24;969.13;;;19.77;38.78
27888;BME280;15237;49.608;7.170;2023-01-08T00:30:20;969.07;;;19.73;38.83
27888;BME280;15237;49.608;7.170;2023-01-08T00:31:20;969.09;;;19.71;38.88
27888;BME280;15237;49.608;7.170;2023-01-08T00:32:16;969.11;;;19.78;38.75
27888;BME280;15237;49.608;7.170;2023-01-08T00:33:12;969.11;;;19.75;38.78
27888;BME280;15237;49.608;7.170;2023-01-08T00:34:08;969.11;;;19.77;38.78
27888;BME280;15237;49.608;7.170;2023-01-08T00:35:04;969.11;;;19.78;38.74
27888;BME280;15237;49.608;7.170;2023-01-08T00:36:10;969.11;;;19.76;38.78
27888;BME280;15237;49.608;7.170;2023-01-08T00:37:01;969.01;;;19.71;38.84
27888;BME280;15237;49.608;7.170;2023-01-08T00:37:57;969.05;;;19.74;38.80
27888;BME280;15237;49.608;7.170;2023-01-08T00:38:54;969.10;;;19.77;38.78
27888;BME280;15237;49.608;7.170;2023-01-08T00:39:51;969.07;;;19.73;38.80
27888;BME280;15237;49.608;7.170;2023-01-08T00:40:52;969.07;;;19.73;38.81
27888;BME280;15237;49.608;7.170;2023-01-08T00:41:48;969.04;;;19.74;38.82
27888;BME280;15237;49.608;7.170;2023-01-08T00:42:45;969.02;;;19.74;38.83
27888;BME280;15237;49.608;7.170;2023-01-08T00:43:41;969.08;;;19.75;38.79
27888;BME280;15237;49.608;7.170;2023-01-08T00:44:36;969.09;;;19.72;38.86
27888;BME280;15237;49.608;7.170;2023-01-08T00:45:32;969.05;;;19.74;38.85
27888;BME280;15237;49.608;7.170;2023-01-08T00:46:28;969.02;;;19.69;38.89
27888;BME280;15237;49.608;7.170;2023-01-08T00:47:24;969.00;;;19.69;38.89
27888;BME280;15237;49.608;7.170;2023-01-08T00:48:20;969.01;;;19.74;38.80
27888;BME280;15237;49.608;7.170;2023-01-08T00:49:16;969.02;;;19.73;38.82
27888;BME280;15237;49.608;7.170;2023-01-08T00:50:17;969.03;;;19.78;38.70
27888;BME280;15237;49.608;7.170;2023-01-08T00:51:13;969.00;;;19.76;38.75
27888;BME280;15237;49.608;7.170;2023-01-08T00:52:09;969.00;;;19.73;38.80
27888;BME280;15237;49.608;7.170;2023-01-08T00:53:04;969.04;;;19.73;38.80
27888;BME280;15237;49.608;7.170;2023-01-08T00:54:00;969.09;;;19.74;38.79
27888;BME280;15237;49.608;7.170;2023-01-08T00:54:56;969.07;;;19.75;38.76
27888;BME280;15237;49.608;7.170;2023-01-08T00:55:58;969.12;;;19.75;38.78
27888;BME280;15237;49.608;7.170;2023-01-08T00:56:54;969.11;;;19.74;38.77
27888;BME280;15237;49.608;7.170;2023-01-08T00:57:50;969.08;;;19.75;38.77
27888;BME280;15237;49.608;7.170;2023-01-08T00:58:46;969.02;;;19.78;38.72
27888;BME280;15237;49.608;7.170;2023-01-08T00:59:46;969.06;;;19.78;38.75
27888;BME280;15237;49.608;7.170;2023-01-08T01:00:41;969.05;;;19.75;38.76
27888;BME280;15237;49.608;7.170;2023-01-08T01:01:37;969.01;;;19.72;38.82
27888;BME280;15237;49.608;7.170;2023-01-08T01:02:33;969.01;;;19.71;38.81
27888;BME280;15237;49.608;7.170;2023-01-08T01:03:30;969.06;;;19.71;38.84
27888;BME280;15237;49.608;7.170;2023-01-08T01:04:27;969.00;;;19.72;38.85
27888;BME280;15237;49.608;7.170;2023-01-08T01:05:23;969.01;;;19.68;38.87
27888;BME280;15237;49.608;7.170;2023-01-08T01:06:19;969.00;;;19.71;38.82
27888;BME280;15237;49.608;7.170;2023-01-08T01:07:15;968.98;;;19.73;38.81
27888;BME280;15237;49.608;7.170;2023-01-08T01:08:11;968.96;;;19.71;38.84
27888;BME280;15237;49.608;7.170;2023-01-08T01:09:12;968.97;;;19.67;38.92
27888;BME280;15237;49.608;7.170;2023-01-08T01:10:08;968.89;;;19.65;38.91
27888;BME280;15237;49.608;7.170;2023-01-08T01:11:06;968.90;;;19.70;38.85
27888;BME280;15237;49.608;7.170;2023-01-08T01:12:03;968.95;;;19.72;38.79
27888;BME280;15237;49.608;7.170;2023-01-08T01:12:59;968.95;;;19.75;38.79
27888;BME280;15237;49.608;7.170;2023-01-08T01:13:55;968.92;;;19.77;38.75
27888;BME280;15237;49.608;7.170;2023-01-08T01:14:52;968.88;;;19.72;38.80
27888;BME280;15237;49.608;7.170;2023-01-08T01:16:48;968.85;;;19.66;38.89
27888;BME280;15237;49.608;7.170;2023-01-08T01:17:44;968.89;;;19.67;38.88
27888;BME280;15237;49.608;7.170;2023-01-08T01:18:44;968.88;;;19.68;38.87
27888;BME280;15237;49.608;7.170;2023-01-08T01:19:41;968.84;;;19.71;38.79
27888;BME280;15237;49.608;7.170;2023-01-08T01:20:36;968.82;;;19.72;38.79
27888;BME280;15237;49.608;7.170;2023-01-08T01:21:33;968.77;;;19.74;38.79
27888;BME280;15237;49.608;7.170;2023-01-08T01:22:30;968.77;;;19.71;38.85
27888;BME280;15237;49.608;7.170;2023-01-08T01:23:26;968.75;;;19.70;38.83
27888;BME280;15237;49.608;7.170;2023-01-08T01:24:22;968.71;;;19.68;38.84
27888;BME280;15237;49.608;7.170;2023-01-08T01:25:18;968.75;;;19.65;38.90
27888;BME280;15237;49.608;7.170;2023-01-08T01:26:16;968.68;;;19.67;38.86
27888;BME280;15237;49.608;7.170;2023-01-08T01:27:13;968.70;;;19.68;38.85
27888;BME280;15237;49.608;7.170;2023-01-08T01:28:13;968.70;;;19.67;38.89
27888;BME280;15237;49.608;7.170;2023-01-08T01:29:09;968.66;;;19.72;38.81
27888;BME280;15237;49.608;7.170;2023-01-08T01:30:05;968.70;;;19.72;38.78
27888;BME280;15237;49.608;7.170;2023-01-08T01:31:04;968.59;;;19.73;38.77
27888;BME280;15237;49.608;7.170;2023-01-08T01:32:00;968.64;;;19.72;38.75
27888;BME280;15237;49.608;7.170;2023-01-08T01:32:56;968.62;;;19.72;38.79
27888;BME280;15237;49.608;7.170;2023-01-08T01:33:52;968.63;;;19.68;38.83
27888;BME280;15237;49.608;7.170;2023-01-08T01:34:48;968.59;;;19.70;38.81
27888;BME280;15237;49.608;7.170;2023-01-08T01:35:44;968.66;;;19.71;38.83
27888;BME280;15237;49.608;7.170;2023-01-08T01:36:40;968.65;;;19.70;38.85
27888;BME280;15237;49.608;7.170;2023-01-08T01:37:41;968.62;;;19.68;38.86
27888;BME280;15237;49.608;7.170;2023-01-08T01:38:37;968.64;;;19.68;38.87
27888;BME280;15237;49.608;7.170;2023-01-08T01:39:33;968.59;;;19.69;38.84
27888;BME280;15237;49.608;7.170;2023-01-08T01:40:29;968.63;;;19.68;38.84
27888;BME280;15237;49.608;7.170;2023-01-08T01:41:28;968.59;;;19.65;38.91
27888;BME280;15237;49.608;7.170;2023-01-08T01:42:27;968.63;;;19.69;38.84
27888;BME280;15237;49.608;7.170;2023-01-08T01:45:25;968.67;;;19.68;38.83
27888;BME280;15237;49.608;7.170;2023-01-08T01:46:32;968.67;;;19.66;38.87
27888;BME280;15237;49.608;7.170;2023-01-08T01:48:26;968.66;;;19.62;38.92
27888;BME280;15237;49.608;7.170;2023-01-08T01:49:24;968.62;;;19.64;38.89
27888;BME280;15237;49.608;7.170;2023-01-08T01:51:19;968.68;;;19.65;38.90
27888;BME280;15237;49.608;7.170;2023-01-08T01:52:15;968.68;;;19.63;38.92
27888;BME280;15237;49.608;7.170;2023-01-08T01:53:12;968.65;;;19.66;38.89
27888;BME280;15237;49.608;7.170;2023-01-08T01:54:10;968.66;;;19.65;38.86
27888;BME280;15237;49.608;7.170;2023-01-08T01:55:09;968.63;;;19.66;38.84
27888;BME280;15237;49.608;7.170;2023-01-08T01:56:06;968.62;;;19.64;38.88
27888;BME280;15237;49.608;7.170;2023-01-08T01:57:08;968.60;;;19.68;38.84
27888;BME280;15237;49.608;7.170;2023-01-08T01:58:07;968.63;;;19.71;38.82
27888;BME280;15237;49.608;7.170;2023-01-08T01:59:05;968.57;;;19.69;38.81
27888;BME280;15237;49.608;7.170;2023-01-08T02:00:01;968.56;;;19.68;38.84
27888;BME280;15237;49.608;7.170;2023-01-08T02:01:00;968.52;;;19.69;38.78
27888;BME280;15237;49.608;7.170;2023-01-08T02:02:01;968.51;;;19.78;38.66
27888;BME280;15237;49.608;7.170;2023-01-08T02:02:57;968.53;;;19.83;38.58
27888;BME280;15237;49.608;7.170;2023-01-08T02:03:52;968.50;;;19.79;38.58
27888;BME280;15237;49.608;7.170;2023-01-08T02:04:48;968.51;;;19.80;38.55
27888;BME280;15237;49.608;7.170;2023-01-08T02:07:55;968.47;;;19.71;38.73
27888;BME280;15237;49.608;7.170;2023-01-08T02:10:00;968.44;;;19.70;38.79
27888;BME280;15237;49.608;7.170;2023-01-08T02:11:05;968.45;;;19.70;38.78
27888;BME280;15237;49.608;7.170;2023-01-08T02:12:04;968.41;;;19.71;38.70
27888;BME280;15237;49.608;7.170;2023-01-08T02:13:03;968.42;;;19.72;38.74
27888;BME280;15237;49.608;7.170;2023-01-08T02:15:57;968.43;;;19.72;38.72
27888;BME280;15237;49.608;7.170;2023-01-08T02:17:01;968.40;;;19.71;38.72
27888;BME280;15237;49.608;7.170;2023-01-08T02:18:56;968.36;;;19.64;38.84
27888;BME280;15237;49.608;7.170;2023-01-08T02:19:56;968.35;;;19.69;38.76
27888;BME280;15237;49.608;7.170;2023-01-08T02:21:54;968.34;;;19.79;38.57
27888;BME280;15237;49.608;7.170;2023-01-08T02:24:00;968.31;;;19.94;38.29
27888;BME280;15237;49.608;7.170;2023-01-08T02:24:55;968.32;;;20.00;38.17
27888;BME280;15237;49.608;7.170;2023-01-08T02:26:58;968.30;;;19.91;38.34
27888;BME280;15237;49.608;7.170;2023-01-08T02:27:56;968.28;;;19.90;38.37
27888;BME280;15237;49.608;7.170;2023-01-08T02:28:58;968.28;;;19.85;38.43
27888;BME280;15237;49.608;7.170;2023-01-08T02:29:55;968.21;;;19.77;38.56
27888;BME280;15237;49.608;7.170;2023-01-08T02:30:53;968.17;;;19.73;38.64
27888;BME280;15237;49.608;7.170;2023-01-08T02:31:50;968.19;;;19.74;38.63
27888;BME280;15237;49.608;7.170;2023-01-08T02:32:47;968.13;;;19.74;38.60
27888;BME280;15237;49.608;7.170;2023-01-08T02:33:43;968.14;;;19.78;38.57
27888;BME280;15237;49.608;7.170;2023-01-08T02:34:39;968.13;;;19.72;38.64
27888;BME280;15237;49.608;7.170;2023-01-08T02:35:39;968.13;;;19.72;38.65
27888;BME280;15237;49.608;7.170;2023-01-08T02:36:44;968.11;;;19.67;38.78
27888;BME280;15237;49.608;7.170;2023-01-08T02:37:41;968.09;;;19.69;38.73
27888;BME280;15237;49.608;7.170;2023-01-08T02:38:43;968.10;;;19.70;38.71
27888;BME280;15237;49.608;7.170;2023-01-08T02:43:44;968.10;;;19.84;38.43
27888;BME280;15237;49.608;7.170;2023-01-08T02:45:40;968.06;;;19.90;38.33
27888;BME280;15237;49.608;7.170;2023-01-08T02:46:41;968.04;;;19.87;38.39
27888;BME280;15237;49.608;7.170;2023-01-08T02:49:40;967.95;;;19.74;38.59
27888;BME280;15237;49.608;7.170;2023-01-08T02:50:48;967.92;;;19.67;38.70
27888;BME280;15237;49.608;7.170;2023-01-08T02:51:40;967.89;;;19.64;38.79
27888;BME280;15237;49.608;7.170;2023-01-08T02:52:43;967.89;;;19.65;38.75
27888;BME280;15237;49.608;7.170;2023-01-08T02:53:46;967.90;;;19.67;38.73
27888;BME280;15237;49.608;7.170;2023-01-08T02:54:43;967.87;;;19.66;38.75
27888;BME280;15237;49.608;7.170;2023-01-08T02:55:41;967.84;;;19.67;38.72
27888;BME280;15237;49.608;7.170;2023-01-08T02:57:04;967.81;;;19.68;38.72
27888;BME280;15237;49.608;7.170;2023-01-08T02:57:49;967.81;;;19.69;38.67
27888;BME280;15237;49.608;7.170;2023-01-08T02:58:45;967.78;;;19.69;38.67
27888;BME280;15237;49.608;7.170;2023-01-08T02:59:44;967.73;;;19.69;38.67
27888;BME280;15237;49.608;7.170;2023-01-08T03:00:42;967.74;;;19.67;38.70
27888;BME280;15237;49.608;7.170;2023-01-08T03:01:41;967.70;;;19.68;38.69
27888;BME280;15237;49.608;7.170;2023-01-08T03:02:38;967.70;;;19.70;38.68
27888;BME280;15237;49.608;7.170;2023-01-08T03:03:36;967.64;;;19.68;38.71
27888;BME280;15237;49.608;7.170;2023-01-08T03:04:35;967.60;;;19.62;38.80
27888;BME280;15237;49.608;7.170;2023-01-08T03:05:35;967.54;;;19.64;38.76
27888;BME280;15237;49.608;7.170;2023-01-08T03:06:38;967.55;;;19.68;38.70
27888;BME280;15237;49.608;7.170;2023-01-08T03:07:36;967.51;;;19.65;38.74
27888;BME280;15237;49.608;7.170;2023-01-08T03:08:32;967.51;;;19.61;38.81
27888;BME280;15237;49.608;7.170;2023-01-08T03:09:29;967.48;;;19.62;38.82
27888;BME280;15237;49.608;7.170;2023-01-08T03:10:25;967.47;;;19.63;38.80
27888;BME280;15237;49.608;7.170;2023-01-08T03:11:23;967.48;;;19.63;38.76
27888;BME280;15237;49.608;7.170;2023-01-08T03:13:26;967.46;;;19.65;38.73
27888;BME280;15237;49.608;7.170;2023-01-08T03:15:23;967.48;;;19.74;38.56
27888;BME280;15237;49.608;7.170;2023-01-08T03:18:30;967.45;;;19.76;38.49
27888;BME280;15237;49.608;7.170;2023-01-08T03:19:44;967.45;;;19.79;38.44
27888;BME280;15237;49.608;7.170;2023-01-08T03:20:33;967.46;;;19.82;38.38
27888;BME280;15237;49.608;7.170;2023-01-08T03:21:30;967.48;;;19.85;38.33
27888;BME280;15237;49.608;7.170;2023-01-08T03:22:28;967.47;;;19.87;38.30
27888;BME280;15237;49.608;7.170;2023-01-08T03:23:26;967.48;;;19.86;38.34
27888;BME280;15237;49.608;7.170;2023-01-08T03:24:24;967.47;;;19.84;38.36
27888;BME280;15237;49.608;7.170;2023-01-08T03:25:23;967.52;;;19.78;38.46
27888;BME280;15237;49.608;7.170;2023-01-08T03:26:24;967.52;;;19.84;38.37
27888;BME280;15237;49.608;7.170;2023-01-08T03:27:22;967.53;;;19.90;38.22
27888;BME280;15237;49.608;7.170;2023-01-08T03:28:25;967.56;;;19.89;38.27
27888;BME280;15237;49.608;7.170;2023-01-08T03:29:21;967.52;;;19.89;38.26
27888;BME280;15237;49.608;7.170;2023-01-08T03:30:19;967.51;;;19.89;38.24
27888;BME280;15237;49.608;7.170;2023-01-08T03:31:16;967.55;;;19.88;38.27
27888;BME280;15237;49.608;7.170;2023-01-08T03:32:15;967.55;;;19.83;38.35
27888;BME280;15237;49.608;7.170;2023-01-08T03:33:13;967.62;;;19.83;38.36
27888;BME280;15237;49.608;7.170;2023-01-08T03:34:11;967.60;;;19.77;38.47
27888;BME280;15237;49.608;7.170;2023-01-08T03:35:08;967.58;;;19.78;38.45
27888;BME280;15237;49.608;7.170;2023-01-08T03:36:15;967.64;;;19.82;38.41
27888;BME280;15237;49.608;7.170;2023-01-08T03:37:15;967.58;;;19.87;38.27
27888;BME280;15237;49.608;7.170;2023-01-08T03:39:16;967.58;;;19.80;38.42
27888;BME280;15237;49.608;7.170;2023-01-08T03:40:17;967.60;;;19.79;38.45
27888;BME280;15237;49.608;7.170;2023-01-08T03:41:17;967.61;;;19.78;38.45
27888;BME280;15237;49.608;7.170;2023-01-08T03:42:15;967.63;;;19.76;38.47
27888;BME280;15237;49.608;7.170;2023-01-08T03:43:14;967.65;;;19.82;38.34
27888;BME280;15237;49.608;7.170;2023-01-08T03:44:10;967.63;;;19.88;38.28
27888;BME280;15237;49.608;7.170;2023-01-08T03:45:08;967.66;;;19.96;38.14
27888;BME280;15237;49.608;7.170;2023-01-08T03:46:17;967.62;;;19.99;38.07
27888;BME280;15237;49.608;7.170;2023-01-08T03:47:13;967.60;;;19.95;38.11
27888;BME280;15237;49.608;7.170;2023-01-08T03:48:13;967.59;;;19.94;38.16
27888;BME280;15237;49.608;7.170;2023-01-08T03:49:09;967.60;;;19.91;38.19
27888;BME280;15237;49.608;7.170;2023-01-08T03:50:06;967.60;;;19.91;38.19
27888;BME280;15237;49.608;7.170;2023-01-08T03:51:06;967.60;;;19.96;38.11
27888;BME280;15237;49.608;7.170;2023-01-08T03:52:02;967.58;;;20.02;38.03
27888;BME280;15237;49.608;7.170;2023-01-08T03:52:59;967.55;;;19.95;38.10
27888;BME280;15237;49.608;7.170;2023-01-08T03:53:57;967.54;;;19.93;38.15
27888;BME280;15237;49.608;7.170;2023-01-08T03:54:54;967.54;;;19.94;38.12
27888;BME280;15237;49.608;7.170;2023-01-08T03:55:57;967.52;;;19.93;38.14
27888;BME280;15237;49.608;7.170;2023-01-08T03:56:52;967.51;;;19.98;38.01
27888;BME280;15237;49.608;7.170;2023-01-08T03:57:49;967.52;;;20.02;37.96
27888;BME280;15237;49.608;7.170;2023-01-08T03:58:45;967.51;;;20.08;37.83
27888;BME280;15237;49.608;7.170;2023-01-08T03:59:41;967.46;;;20.08;37.86
27888;BME280;15237;49.608;7.170;2023-01-08T04:00:39;967.49;;;20.05;37.91
27888;BME280;15237;49.608;7.170;2023-01-08T04:01:36;967.46;;;20.04;37.88
27888;BME280;15237;49.608;7.170;2023-01-08T04:02:32;967.38;;;20.05;37.87
27888;BME280;15237;49.608;7.170;2023-01-08T04:03:28;967.43;;;19.97;38.02
27888;BME280;15237;49.608;7.170;2023-01-08T04:04:21;967.42;;;19.92;38.13
27888;BME280;15237;49.608;7.170;2023-01-08T04:05:21;967.40;;;19.91;38.11
27888;BME280;15237;49.608;7.170;2023-01-08T04:06:17;967.42;;;19.88;38.21
27888;BME280;15237;49.608;7.170;2023-01-08T04:07:12;967.36;;;19.78;38.39
27888;BME280;15237;49.608;7.170;2023-01-08T04:08:09;967.36;;;19.74;38.45
27888;BME280;15237;49.608;7.170;2023-01-08T04:09:06;967.36;;;19.74;38.46
27888;BME280;15237;49.608;7.170;2023-01-08T04:10:03;967.31;;;19.68;38.60
27888;BME280;15237;49.608;7.170;2023-01-08T04:10:59;967.32;;;19.68;38.60
27888;BME280;15237;49.608;7.170;2023-01-08T04:11:55;967.30;;;19.65;38.66
27888;BME280;15237;49.608;7.170;2023-01-08T04:12:52;967.29;;;19.59;38.74
27888;BME280;15237;49.608;7.170;2023-01-08T04:13:48;967.25;;;19.57;38.80
27888;BME280;15237;49.608;7.170;2023-01-08T04:14:49;967.25;;;19.62;38.73
27888;BME280;15237;49.608;7.170;2023-01-08T04:15:48;967.21;;;19.63;38.68
27888;BME280;15237;49.608;7.170;2023-01-08T04:16:45;967.24;;;19.63;38.69
27888;BME280;15237;49.608;7.170;2023-01-08T04:17:41;967.21;;;19.66;38.64
27888;BME280;15237;49.608;7.170;2023-01-08T04:18:37;967.17;;;19.64;38.67
27888;BME280;15237;49.608;7.170;2023-01-08T04:19:33;967.22;;;19.62;38.72
27888;BME280;15237;49.608;7.170;2023-01-08T04:20:29;967.20;;;19.59;38.72
27888;BME280;15237;49.608;7.170;2023-01-08T04:21:25;967.20;;;19.59;38.74
27888;BME280;15237;49.608;7.170;2023-01-08T04:22:21;967.19;;;19.53;38.89
27888;BME280;15237;49.608;7.170;2023-01-08T04:23:17;967.24;;;19.57;38.81
27888;BME280;15237;49.608;7.170;2023-01-08T04:24:18;967.19;;;19.55;38.85
27888;BME280;15237;49.608;7.170;2023-01-08T04:25:14;967.20;;;19.51;38.92
27888;BME280;15237;49.608;7.170;2023-01-08T04:26:10;967.16;;;19.54;38.87
27888;BME280;15237;49.608;7.170;2023-01-08T04:27:06;967.15;;;19.53;38.89
27888;BME280;15237;49.608;7.170;2023-01-08T04:28:02;967.11;;;19.54;38.86
27888;BME280;15237;49.608;7.170;2023-01-08T04:29:00;967.13;;;19.56;38.83
27888;BME280;15237;49.608;7.170;2023-01-08T04:29:56;967.11;;;19.59;38.78
27888;BME280;15237;49.608;7.170;2023-01-08T04:30:54;967.10;;;19.56;38.82
27888;BME280;15237;49.608;7.170;2023-01-08T04:31:50;967.06;;;19.55;38.83
27888;BME280;15237;49.608;7.170;2023-01-08T04:32:47;967.10;;;19.55;38.87
27888;BME280;15237;49.608;7.170;2023-01-08T04:33:48;967.09;;;19.59;38.74
27888;BME280;15237;49.608;7.170;2023-01-08T04:34:44;967.14;;;19.68;38.58
27888;BME280;15237;49.608;7.170;2023-01-08T04:35:40;967.17;;;19.84;38.29
27888;BME280;15237;49.608;7.170;2023-01-08T04:36:28;967.14;;;19.93;38.15
27888;BME280;15237;49.608;7.170;2023-01-08T04:37:24;967.13;;;19.92;38.13
27888;BME280;15237;49.608;7.170;2023-01-08T04:38:20;967.16;;;19.83;38.28
27888;BME280;15237;49.608;7.170;2023-01-08T04:39:16;967.11;;;19.79;38.36
27888;BME280;15237;49.608;7.170;2023-01-08T04:40:12;967.13;;;19.78;38.38
27888;BME280;15237;49.608;7.170;2023-01-08T04:41:08;967.09;;;19.75;38.42
27888;BME280;15237;49.608;7.170;2023-01-08T04:42:04;967.08;;;19.70;38.52
27888;BME280;15237;49.608;7.170;2023-01-08T04:43:07;967.07;;;19.65;38.60
27888;BME280;15237;49.608;7.170;2023-01-08T04:44:02;967.13;;;19.72;38.49
27888;BME280;15237;49.608;7.170;2023-01-08T04:44:59;967.09;;;19.82;38.30
27888;BME280;15237;49.608;7.170;2023-01-08T04:45:57;967.10;;;19.90;38.17
27888;BME280;15237;49.608;7.170;2023-01-08T04:46:55;967.11;;;19.98;38.00
27888;BME280;15237;49.608;7.170;2023-01-08T04:48:51;967.08;;;19.94;38.04
27888;BME280;15237;49.608;7.170;2023-01-08T04:49:47;967.09;;;19.89;38.15
27888;BME280;15237;49.608;7.170;2023-01-08T04:50:43;967.14;;;19.82;38.27
27888;BME280;15237;49.608;7.170;2023-01-08T04:51:37;967.11;;;19.76;38.40
27888;BME280;15237;49.608;7.170;2023-01-08T04:52:38;967.07;;;19.78;38.32
27888;BME280;15237;49.608;7.170;2023-01-08T04:53:34;967.06;;;19.72;38.44
27888;BME280;15237;49.608;7.170;2023-01-08T04:54:30;967.07;;;19.69;38.53
27888;BME280;15237;49.608;7.170;2023-01-08T04:55:26;967.08;;;19.66;38.59
27888;BME280;15237;49.608;7.170;2023-01-08T04:57:27;967.06;;;19.64;38.65
27888;BME280;15237;49.608;7.170;2023-01-08T04:58:24;967.08;;;19.63;38.64
27888;BME280;15237;49.608;7.170;2023-01-08T04:59:20;967.07;;;19.63;38.64
27888;BME280;15237;49.608;7.170;2023-01-08T05:00:16;967.09;;;19.67;38.59
27888;BME280;15237;49.608;7.170;2023-01-08T05:01:15;967.08;;;19.62;38.69
27888;BME280;15237;49.608;7.170;2023-01-08T05:02:20;967.11;;;19.58;38.72
27888;BME280;15237;49.608;7.170;2023-01-08T05:03:16;967.11;;;19.64;38.65
27888;BME280;15237;49.608;7.170;2023-01-08T05:04:13;967.11;;;19.65;38.59
27888;BME280;15237;49.608;7.170;2023-01-08T05:05:09;967.16;;;19.64;38.65
27888;BME280;15237;49.608;7.170;2023-01-08T05:06:05;967.14;;;19.57;38.82
27888;BME280;15237;49.608;7.170;2023-01-08T05:07:02;967.15;;;19.53;38.88
27888;BME280;15237;49.608;7.170;2023-01-08T05:07:58;967.17;;;19.55;38.83
27888;BME280;15237;49.608;7.170;2023-01-08T05:08:54;967.18;;;19.63;38.70
27888;BME280;15237;49.608;7.170;2023-01-08T05:09:50;967.14;;;19.69;38.62
27888;BME280;15237;49.608;7.170;2023-01-08T05:10:46;967.17;;;19.81;38.41
27888;BME280;15237;49.608;7.170;2023-01-08T05:11:46;967.12;;;19.94;38.20
27888;BME280;15237;49.608;7.170;2023-01-08T05:12:43;967.11;;;20.09;37.95
27888;BME280;15237;49.608;7.170;2023-01-08T05:13:40;967.09;;;20.21;37.75
27888;BME280;15237;49.608;7.170;2023-01-08T05:14:37;967.10;;;20.38;37.41
27888;BME280;15237;49.608;7.170;2023-01-08T05:15:33;967.08;;;20.47;37.30
27888;BME280;15237;49.608;7.170;2023-01-08T05:16:29;967.13;;;20.64;36.99
27888;BME280;15237;49.608;7.170;2023-01-08T05:17:24;967.08;;;20.63;37.04
27888;BME280;15237;49.608;7.170;2023-01-08T05:18:20;967.07;;;20.77;36.76
27888;BME280;15237;49.608;7.170;2023-01-08T05:19:16;967.10;;;20.87;36.61
27888;BME280;15237;49.608;7.170;2023-01-08T05:20:12;967.07;;;20.94;36.49
27888;BME280;15237;49.608;7.170;2023-01-08T05:21:13;967.12;;;21.02;36.36
27888;BME280;15237;49.608;7.170;2023-01-08T05:22:09;967.14;;;21.13;36.17
27888;BME280;15237;49.608;7.170;2023-01-08T05:23:05;967.13;;;21.12;36.22
27888;BME280;15237;49.608;7.170;2023-01-08T05:24:00;967.12;;;21.13;36.26
27888;BME280;15237;49.608;7.170;2023-01-08T05:24:57;967.10;;;21.23;36.10
27888;BME280;15237;49.608;7.170;2023-01-08T05:25:55;967.10;;;21.25;36.09
27888;BME280;15237;49.608;7.170;2023-01-08T05:26:52;967.13;;;21.34;35.96
27888;BME280;15237;49.608;7.170;2023-01-08T05:27:48;967.07;;;21.28;36.10
27888;BME280;15237;49.608;7.170;2023-01-08T05:28:44;967.09;;;21.39;35.91
27888;BME280;15237;49.608;7.170;2023-01-08T05:29:40;967.07;;;21.32;36.05
27888;BME280;15237;49.608;7.170;2023-01-08T05:30:40;967.07;;;21.39;35.95
27888;BME280;15237;49.608;7.170;2023-01-08T05:31:36;967.09;;;21.40;36.00
27888;BME280;15237;49.608;7.170;2023-01-08T05:32:31;967.06;;;21.38;36.04
27888;BME280;15237;49.608;7.170;2023-01-08T05:33:27;967.09;;;21.47;35.93
27888;BME280;15237;49.608;7.170;2023-01-08T05:34:23;967.06;;;21.43;36.01
27888;BME280;15237;49.608;7.170;2023-01-08T05:35:21;967.06;;;21.37;36.13
27888;BME280;15237;49.608;7.170;2023-01-08T05:36:17;967.07;;;21.38;36.13
27888;BME280;15237;49.608;7.170;2023-01-08T05:37:14;967.08;;;21.35;36.21
27888;BME280;15237;49.608;7.170;2023-01-08T05:38:10;967.05;;;21.35;36.23
27888;BME280;15237;49.608;7.170;2023-01-08T05:39:08;967.03;;;21.38;36.20
27888;BME280;15237;49.608;7.170;2023-01-08T05:40:09;966.99;;;21.33;36.33
27888;BME280;15237;49.608;7.170;2023-01-08T05:41:07;967.02;;;21.29;36.44